QFA437 YSSY-YMML
Flight info
| Callsign | QFA437 |
|---|---|
| Flight time | 0h 53m |
| Altitude | 34000 |
| Route | WOL DCT CB DCT BOYSE |
| Aircraft | B738/M-SDE2E3FGHIRWXY/LB1 |
Departure
| Time | 2026-04-30 05:05 |
|---|---|
| Airport | Sydney Kingsford Smith International Airport (YSSY) |
Arrival
| Time | 2026-04-30 05:58 |
|---|---|
| Airport | Melbourne Airport (YMML) |
| Time | Latitude | Longitude | Altitude | Speed | Heading |
|---|---|---|---|---|---|
| 2026-04-30 04:37 | -33.93154 | 151.17619 | 29 ft | 0 kts | 114° |
| 2026-04-30 04:48 | -33.93148 | 151.17604 | 29 ft | 4 kts | 94° |
| 2026-04-30 04:49 | -33.93152 | 151.17574 | 29 ft | 4 kts | 94° |
| 2026-04-30 04:49 | -33.93145 | 151.17550 | 29 ft | 4 kts | 122° |
| 2026-04-30 04:49 | -33.93127 | 151.17528 | 29 ft | 4 kts | 158° |
| 2026-04-30 04:49 | -33.93114 | 151.17523 | 29 ft | 0 kts | 167° |
| 2026-04-30 04:51 | -33.93117 | 151.17524 | 29 ft | 2 kts | 167° |
| 2026-04-30 04:52 | -33.93158 | 151.17534 | 29 ft | 9 kts | 168° |
| 2026-04-30 04:52 | -33.93225 | 151.17551 | 29 ft | 10 kts | 168° |
| 2026-04-30 04:52 | -33.93290 | 151.17569 | 29 ft | 10 kts | 167° |
| 2026-04-30 04:52 | -33.93355 | 151.17584 | 29 ft | 9 kts | 169° |
| 2026-04-30 04:53 | -33.93419 | 151.17594 | 29 ft | 9 kts | 185° |
| 2026-04-30 04:53 | -33.93480 | 151.17583 | 29 ft | 9 kts | 174° |
| 2026-04-30 04:53 | -33.93540 | 151.17599 | 29 ft | 9 kts | 168° |
| 2026-04-30 04:53 | -33.93600 | 151.17614 | 29 ft | 10 kts | 168° |
| 2026-04-30 04:54 | -33.93671 | 151.17651 | 29 ft | 14 kts | 149° |
| 2026-04-30 04:54 | -33.93781 | 151.17697 | 29 ft | 19 kts | 171° |
| 2026-04-30 04:54 | -33.93894 | 151.17776 | 28 ft | 19 kts | 163° |
| 2026-04-30 04:54 | -33.94025 | 151.17810 | 28 ft | 19 kts | 168° |
| 2026-04-30 04:55 | -33.94151 | 151.17842 | 29 ft | 18 kts | 167° |
| 2026-04-30 04:55 | -33.94271 | 151.17874 | 29 ft | 18 kts | 167° |
| 2026-04-30 04:55 | -33.94388 | 151.17905 | 29 ft | 17 kts | 168° |
| 2026-04-30 04:55 | -33.94498 | 151.17881 | 29 ft | 16 kts | 196° |
| 2026-04-30 04:56 | -33.94607 | 151.17903 | 29 ft | 16 kts | 167° |
| 2026-04-30 04:56 | -33.94713 | 151.17931 | 29 ft | 15 kts | 168° |
| 2026-04-30 04:56 | -33.94815 | 151.17957 | 29 ft | 15 kts | 168° |
| 2026-04-30 04:56 | -33.94914 | 151.17983 | 29 ft | 15 kts | 167° |
| 2026-04-30 04:57 | -33.95026 | 151.18012 | 29 ft | 18 kts | 167° |
| 2026-04-30 04:57 | -33.95101 | 151.18107 | 29 ft | 18 kts | 77° |
| 2026-04-30 04:57 | -33.95074 | 151.18251 | 29 ft | 17 kts | 78° |
| 2026-04-30 04:57 | -33.95049 | 151.18388 | 29 ft | 17 kts | 78° |
| 2026-04-30 04:58 | -33.95071 | 151.18510 | 29 ft | 16 kts | 154° |
| 2026-04-30 04:58 | -33.95157 | 151.18589 | 29 ft | 15 kts | 137° |
| 2026-04-30 04:58 | -33.95236 | 151.18672 | 29 ft | 15 kts | 147° |
| 2026-04-30 04:58 | -33.95327 | 151.18722 | 29 ft | 14 kts | 166° |
| 2026-04-30 04:59 | -33.95421 | 151.18746 | 29 ft | 13 kts | 168° |
| 2026-04-30 04:59 | -33.95510 | 151.18770 | 29 ft | 13 kts | 167° |
| 2026-04-30 04:59 | -33.95598 | 151.18794 | 29 ft | 13 kts | 166° |
| 2026-04-30 04:59 | -33.95681 | 151.18817 | 29 ft | 12 kts | 168° |
| 2026-04-30 05:00 | -33.95773 | 151.18840 | 29 ft | 14 kts | 169° |
| 2026-04-30 05:00 | -33.95872 | 151.18864 | 29 ft | 16 kts | 167° |
| 2026-04-30 05:00 | -33.95997 | 151.18896 | 29 ft | 21 kts | 168° |
| 2026-04-30 05:00 | -33.96151 | 151.18936 | 29 ft | 23 kts | 168° |
| 2026-04-30 05:01 | -33.96305 | 151.18976 | 29 ft | 22 kts | 168° |
| 2026-04-30 05:01 | -33.96456 | 151.19014 | 29 ft | 22 kts | 168° |
| 2026-04-30 05:01 | -33.96602 | 151.19052 | 29 ft | 21 kts | 168° |
| 2026-04-30 05:01 | -33.96744 | 151.19070 | 29 ft | 20 kts | 192° |
| 2026-04-30 05:02 | -33.96883 | 151.19080 | 29 ft | 20 kts | 167° |
| 2026-04-30 05:02 | -33.97016 | 151.19115 | 29 ft | 19 kts | 168° |
| 2026-04-30 05:02 | -33.97112 | 151.19151 | 29 ft | 12 kts | 141° |
| 2026-04-30 05:02 | -33.97119 | 151.19240 | 28 ft | 10 kts | 77° |
| 2026-04-30 05:03 | -33.97114 | 151.19266 | 28 ft | 0 kts | 77° |
| 2026-04-30 05:03 | -33.97114 | 151.19268 | 27 ft | 2 kts | 77° |
| 2026-04-30 05:03 | -33.97104 | 151.19324 | 27 ft | 11 kts | 77° |
| 2026-04-30 05:04 | -33.97049 | 151.19372 | 27 ft | 11 kts | 346° |
| 2026-04-30 05:04 | -33.97023 | 151.19365 | 25 ft | 0 kts | 348° |
| 2026-04-30 05:04 | -33.96967 | 151.19350 | 23 ft | 36 kts | 348° |
| 2026-04-30 05:04 | -33.96461 | 151.19222 | 27 ft | 110 kts | 349° |
| 2026-04-30 05:05 | -33.95498 | 151.18967 | 53 ft | 168 kts | 348° |
| 2026-04-30 05:05 | -33.94355 | 151.18641 | 849 ft | 160 kts | 353° |
| 2026-04-30 05:05 | -33.93235 | 151.18804 | 1538 ft | 169 kts | 28° |
| 2026-04-30 05:06 | -33.92747 | 151.21382 | 2824 ft | 195 kts | 118° |
| 2026-04-30 05:06 | -33.93405 | 151.22828 | 3688 ft | 194 kts | 112° |
| 2026-04-30 05:06 | -33.93877 | 151.24329 | 4383 ft | 199 kts | 94° |
| 2026-04-30 05:06 | -33.93846 | 151.26081 | 4620 ft | 223 kts | 85° |
| 2026-04-30 05:07 | -33.93766 | 151.28070 | 4860 ft | 251 kts | 86° |
| 2026-04-30 05:07 | -33.93696 | 151.30227 | 5470 ft | 262 kts | 86° |
| 2026-04-30 05:07 | -33.93629 | 151.32439 | 6227 ft | 266 kts | 87° |
| 2026-04-30 05:07 | -33.93563 | 151.34670 | 7065 ft | 267 kts | 88° |
| 2026-04-30 05:08 | -33.93497 | 151.36917 | 7853 ft | 270 kts | 88° |
| 2026-04-30 05:08 | -33.93431 | 151.39196 | 8579 ft | 275 kts | 88° |
| 2026-04-30 05:08 | -33.93364 | 151.41507 | 9325 ft | 279 kts | 87° |
| 2026-04-30 05:08 | -33.93295 | 151.43833 | 10077 ft | 283 kts | 87° |
| 2026-04-30 05:09 | -33.93224 | 151.46223 | 10789 ft | 287 kts | 87° |
| 2026-04-30 05:09 | -33.93163 | 151.48639 | 11460 ft | 292 kts | 91° |
| 2026-04-30 05:09 | -33.93662 | 151.51021 | 12096 ft | 300 kts | 119° |
| 2026-04-30 05:09 | -33.95062 | 151.52892 | 12793 ft | 306 kts | 144° |
| 2026-04-30 05:10 | -33.96995 | 151.53945 | 13269 ft | 320 kts | 169° |
| 2026-04-30 05:10 | -33.99280 | 151.53838 | 13445 ft | 342 kts | 197° |
| 2026-04-30 05:10 | -34.01463 | 151.52540 | 13647 ft | 360 kts | 217° |
| 2026-04-30 05:10 | -34.03331 | 151.50458 | 14120 ft | 370 kts | 227° |
| 2026-04-30 05:11 | -34.05068 | 151.48146 | 14744 ft | 373 kts | 230° |
| 2026-04-30 05:11 | -34.11288 | 151.39500 | 17177 ft | 384 kts | 229° |
| 2026-04-30 05:11 | -34.18481 | 151.29731 | 19665 ft | 395 kts | 227° |
| 2026-04-30 05:11 | -34.25941 | 151.19686 | 21870 ft | 407 kts | 227° |
| 2026-04-30 05:12 | -34.33612 | 151.09312 | 23895 ft | 420 kts | 227° |
| 2026-04-30 05:12 | -34.41500 | 150.98602 | 25575 ft | 429 kts | 227° |
| 2026-04-30 05:12 | -34.49500 | 150.87707 | 27174 ft | 438 kts | 227° |
| 2026-04-30 05:12 | -34.57531 | 150.76391 | 28557 ft | 449 kts | 234° |
| 2026-04-30 05:13 | -34.63626 | 150.62999 | 29990 ft | 456 kts | 242° |
| 2026-04-30 05:13 | -34.69476 | 150.49369 | 31586 ft | 452 kts | 239° |
| 2026-04-30 05:13 | -34.75601 | 150.36091 | 33021 ft | 449 kts | 239° |
| 2026-04-30 05:13 | -34.81676 | 150.22891 | 34398 ft | 446 kts | 239° |
| 2026-04-30 05:14 | -34.87808 | 150.09423 | 34522 ft | 461 kts | 239° |
| 2026-04-30 05:14 | -34.95671 | 149.92146 | 34396 ft | 465 kts | 239° |
| 2026-04-30 05:14 | -34.98110 | 149.86727 | 34395 ft | 444 kts | 240° |
| 2026-04-30 05:14 | -35.03908 | 149.73802 | 34359 ft | 429 kts | 240° |
| 2026-04-30 05:15 | -35.13780 | 149.51799 | 34433 ft | 445 kts | 240° |
| 2026-04-30 05:15 | -35.19802 | 149.38300 | 34439 ft | 456 kts | 240° |
| 2026-04-30 05:15 | -35.25871 | 149.24635 | 34401 ft | 456 kts | 240° |
| 2026-04-30 05:16 | -35.30204 | 149.15793 | 34404 ft | 440 kts | 233° |
| 2026-04-30 05:16 | -35.33861 | 149.09811 | 34407 ft | 438 kts | 232° |
| 2026-04-30 05:17 | -35.37516 | 149.03884 | 34390 ft | 439 kts | 232° |
| 2026-04-30 05:17 | -35.41160 | 148.97880 | 34394 ft | 439 kts | 233° |
| 2026-04-30 05:18 | -35.44789 | 148.91836 | 34398 ft | 441 kts | 233° |
| 2026-04-30 05:18 | -35.48421 | 148.85757 | 34402 ft | 442 kts | 233° |
| 2026-04-30 05:19 | -35.52060 | 148.79656 | 34397 ft | 443 kts | 233° |
| 2026-04-30 05:19 | -35.55708 | 148.73532 | 34391 ft | 445 kts | 234° |
| 2026-04-30 05:20 | -35.59361 | 148.67389 | 34403 ft | 446 kts | 234° |
| 2026-04-30 05:20 | -35.63036 | 148.61197 | 34416 ft | 453 kts | 234° |
| 2026-04-30 05:21 | -35.66786 | 148.54867 | 34409 ft | 462 kts | 234° |
| 2026-04-30 05:21 | -35.70577 | 148.48459 | 34395 ft | 463 kts | 234° |
| 2026-04-30 05:22 | -35.74341 | 148.42084 | 34399 ft | 463 kts | 234° |
| 2026-04-30 05:22 | -35.78136 | 148.35645 | 34388 ft | 463 kts | 234° |
| 2026-04-30 05:23 | -35.81915 | 148.29221 | 34387 ft | 463 kts | 234° |
| 2026-04-30 05:23 | -35.85685 | 148.22799 | 34381 ft | 462 kts | 234° |
| 2026-04-30 05:24 | -35.89447 | 148.16379 | 34384 ft | 461 kts | 235° |
| 2026-04-30 05:24 | -35.92564 | 148.11052 | 34380 ft | 461 kts | 235° |
| 2026-04-30 05:25 | -35.96920 | 148.03592 | 34377 ft | 460 kts | 235° |
| 2026-04-30 05:25 | -36.00053 | 147.98216 | 34374 ft | 460 kts | 235° |
| 2026-04-30 05:26 | -36.03799 | 147.91779 | 34363 ft | 461 kts | 235° |
| 2026-04-30 05:26 | -36.07528 | 147.85358 | 34366 ft | 460 kts | 236° |
| 2026-04-30 05:27 | -36.10496 | 147.80239 | 34360 ft | 460 kts | 236° |
| 2026-04-30 05:27 | -36.13905 | 147.74350 | 34362 ft | 460 kts | 236° |
| 2026-04-30 05:28 | -36.17627 | 147.67908 | 34362 ft | 460 kts | 236° |
| 2026-04-30 05:28 | -36.21343 | 147.61466 | 34368 ft | 460 kts | 236° |
| 2026-04-30 05:29 | -36.25056 | 147.55017 | 34355 ft | 459 kts | 236° |
| 2026-04-30 05:29 | -36.28762 | 147.48567 | 34357 ft | 459 kts | 236° |
| 2026-04-30 05:30 | -36.32462 | 147.42114 | 34360 ft | 459 kts | 236° |
| 2026-04-30 05:30 | -36.36159 | 147.35656 | 34363 ft | 459 kts | 236° |
| 2026-04-30 05:31 | -36.39823 | 147.29244 | 34357 ft | 458 kts | 236° |
| 2026-04-30 05:31 | -36.43512 | 147.22774 | 34360 ft | 458 kts | 236° |
| 2026-04-30 05:32 | -36.47193 | 147.16306 | 34354 ft | 458 kts | 236° |
| 2026-04-30 05:32 | -36.50866 | 147.09842 | 34362 ft | 458 kts | 237° |
| 2026-04-30 05:33 | -36.54537 | 147.03368 | 34350 ft | 458 kts | 237° |
| 2026-04-30 05:33 | -36.58202 | 146.96891 | 34356 ft | 457 kts | 237° |
| 2026-04-30 05:34 | -36.61859 | 146.90418 | 34359 ft | 457 kts | 237° |
| 2026-04-30 05:34 | -36.63677 | 146.87193 | 33801 ft | 463 kts | 237° |
| 2026-04-30 05:34 | -36.65551 | 146.83867 | 33175 ft | 462 kts | 237° |
| 2026-04-30 05:35 | -36.67367 | 146.80643 | 32755 ft | 462 kts | 237° |
| 2026-04-30 05:35 | -36.69223 | 146.77344 | 32247 ft | 467 kts | 237° |
| 2026-04-30 05:35 | -36.71081 | 146.74037 | 31729 ft | 458 kts | 237° |
| 2026-04-30 05:35 | -36.72881 | 146.70835 | 31236 ft | 446 kts | 237° |
| 2026-04-30 05:36 | -36.74651 | 146.67683 | 30801 ft | 442 kts | 238° |
| 2026-04-30 05:36 | -36.76405 | 146.64553 | 30310 ft | 438 kts | 238° |
| 2026-04-30 05:36 | -36.78144 | 146.61447 | 29770 ft | 435 kts | 238° |
| 2026-04-30 05:36 | -36.79868 | 146.58362 | 29263 ft | 431 kts | 238° |
| 2026-04-30 05:37 | -36.81576 | 146.55306 | 28780 ft | 427 kts | 238° |
| 2026-04-30 05:37 | -36.83267 | 146.52276 | 28302 ft | 424 kts | 238° |
| 2026-04-30 05:37 | -36.84948 | 146.49262 | 27830 ft | 421 kts | 238° |
| 2026-04-30 05:37 | -36.86622 | 146.46256 | 27389 ft | 425 kts | 238° |
| 2026-04-30 05:38 | -36.88326 | 146.43190 | 26927 ft | 433 kts | 238° |
| 2026-04-30 05:38 | -36.90057 | 146.40071 | 26454 ft | 441 kts | 238° |
| 2026-04-30 05:38 | -36.91819 | 146.36899 | 25950 ft | 448 kts | 238° |
| 2026-04-30 05:38 | -36.93585 | 146.33716 | 25473 ft | 453 kts | 238° |
| 2026-04-30 05:39 | -36.95394 | 146.30455 | 24946 ft | 459 kts | 238° |
| 2026-04-30 05:39 | -36.97226 | 146.27149 | 24425 ft | 465 kts | 238° |
| 2026-04-30 05:39 | -36.99077 | 146.23805 | 23892 ft | 470 kts | 238° |
| 2026-04-30 05:39 | -37.00943 | 146.20434 | 23344 ft | 473 kts | 238° |
| 2026-04-30 05:40 | -37.02798 | 146.17081 | 23304 ft | 464 kts | 238° |
| 2026-04-30 05:40 | -37.04623 | 146.13781 | 23242 ft | 457 kts | 238° |
| 2026-04-30 05:40 | -37.06416 | 146.10534 | 23192 ft | 450 kts | 239° |
| 2026-04-30 05:40 | -37.08188 | 146.07321 | 23157 ft | 444 kts | 239° |
| 2026-04-30 05:41 | -37.09929 | 146.04156 | 23121 ft | 439 kts | 239° |
| 2026-04-30 05:41 | -37.11654 | 146.01019 | 23084 ft | 434 kts | 239° |
| 2026-04-30 05:41 | -37.13356 | 145.97919 | 23067 ft | 430 kts | 239° |
| 2026-04-30 05:41 | -37.15047 | 145.94837 | 23045 ft | 427 kts | 239° |
| 2026-04-30 05:42 | -37.16700 | 145.91821 | 23022 ft | 423 kts | 239° |
| 2026-04-30 05:42 | -37.18379 | 145.88754 | 23015 ft | 420 kts | 239° |
| 2026-04-30 05:42 | -37.20002 | 145.85788 | 22963 ft | 413 kts | 239° |
| 2026-04-30 05:42 | -37.21614 | 145.82844 | 22894 ft | 403 kts | 239° |
| 2026-04-30 05:43 | -37.23175 | 145.79991 | 22627 ft | 390 kts | 240° |
| 2026-04-30 05:43 | -37.24693 | 145.77211 | 22097 ft | 382 kts | 240° |
| 2026-04-30 05:43 | -37.26178 | 145.74484 | 21605 ft | 375 kts | 240° |
| 2026-04-30 05:43 | -37.27645 | 145.71788 | 21113 ft | 373 kts | 240° |
| 2026-04-30 05:44 | -37.29106 | 145.69101 | 20626 ft | 372 kts | 240° |
| 2026-04-30 05:44 | -37.30562 | 145.66427 | 20146 ft | 371 kts | 240° |
| 2026-04-30 05:44 | -37.32057 | 145.63785 | 19666 ft | 370 kts | 238° |
| 2026-04-30 05:44 | -37.33572 | 145.61182 | 19196 ft | 368 kts | 238° |
| 2026-04-30 05:45 | -37.35062 | 145.58630 | 18756 ft | 366 kts | 238° |
| 2026-04-30 05:45 | -37.36565 | 145.56047 | 18248 ft | 365 kts | 238° |
| 2026-04-30 05:45 | -37.38054 | 145.53476 | 17727 ft | 363 kts | 238° |
| 2026-04-30 05:45 | -37.39527 | 145.50927 | 17212 ft | 357 kts | 238° |
| 2026-04-30 05:46 | -37.40968 | 145.48427 | 16691 ft | 350 kts | 238° |
| 2026-04-30 05:46 | -37.42402 | 145.45933 | 15939 ft | 352 kts | 238° |
| 2026-04-30 05:46 | -37.43831 | 145.43446 | 15224 ft | 350 kts | 237° |
| 2026-04-30 05:46 | -37.45312 | 145.41026 | 14512 ft | 349 kts | 230° |
| 2026-04-30 05:47 | -37.47059 | 145.38907 | 13781 ft | 349 kts | 224° |
| 2026-04-30 05:47 | -37.48898 | 145.36926 | 13001 ft | 347 kts | 223° |
| 2026-04-30 05:47 | -37.50743 | 145.34980 | 12252 ft | 344 kts | 223° |
| 2026-04-30 05:47 | -37.52562 | 145.33038 | 11515 ft | 342 kts | 224° |
| 2026-04-30 05:48 | -37.54358 | 145.31092 | 10775 ft | 339 kts | 224° |
| 2026-04-30 05:48 | -37.56127 | 145.29149 | 10072 ft | 336 kts | 224° |
| 2026-04-30 05:48 | -37.57877 | 145.27209 | 9288 ft | 334 kts | 224° |
| 2026-04-30 05:48 | -37.59610 | 145.25281 | 8530 ft | 331 kts | 224° |
| 2026-04-30 05:49 | -37.61330 | 145.23364 | 7841 ft | 328 kts | 225° |
| 2026-04-30 05:49 | -37.62991 | 145.21513 | 7445 ft | 317 kts | 225° |
| 2026-04-30 05:49 | -37.64633 | 145.19683 | 7123 ft | 305 kts | 225° |
| 2026-04-30 05:49 | -37.66173 | 145.17965 | 6828 ft | 294 kts | 225° |
| 2026-04-30 05:50 | -37.67676 | 145.16285 | 6536 ft | 284 kts | 225° |
| 2026-04-30 05:50 | -37.69129 | 145.14657 | 6228 ft | 276 kts | 225° |
| 2026-04-30 05:50 | -37.70545 | 145.13074 | 5958 ft | 270 kts | 225° |
| 2026-04-30 05:50 | -37.71946 | 145.11502 | 5686 ft | 269 kts | 225° |
| 2026-04-30 05:51 | -37.73335 | 145.09944 | 5509 ft | 264 kts | 225° |
| 2026-04-30 05:51 | -37.74692 | 145.08426 | 5382 ft | 257 kts | 225° |
| 2026-04-30 05:51 | -37.76025 | 145.06933 | 5146 ft | 255 kts | 225° |
| 2026-04-30 05:51 | -37.77345 | 145.05450 | 4899 ft | 253 kts | 225° |
| 2026-04-30 05:52 | -37.78673 | 145.03957 | 4637 ft | 252 kts | 225° |
| 2026-04-30 05:52 | -37.79966 | 145.02505 | 4524 ft | 245 kts | 225° |
| 2026-04-30 05:52 | -37.81143 | 145.01041 | 4371 ft | 234 kts | 241° |
| 2026-04-30 05:52 | -37.81666 | 144.99202 | 4311 ft | 216 kts | 263° |
| 2026-04-30 05:53 | -37.81985 | 144.97359 | 4214 ft | 213 kts | 263° |
| 2026-04-30 05:53 | -37.82306 | 144.95534 | 4120 ft | 214 kts | 263° |
| 2026-04-30 05:53 | -37.82610 | 144.93701 | 3868 ft | 209 kts | 265° |
| 2026-04-30 05:53 | -37.82835 | 144.91933 | 3632 ft | 199 kts | 266° |
| 2026-04-30 05:54 | -37.83042 | 144.90238 | 3429 ft | 190 kts | 267° |
| 2026-04-30 05:54 | -37.83165 | 144.88634 | 3237 ft | 177 kts | 283° |
| 2026-04-30 05:54 | -37.82663 | 144.87344 | 3044 ft | 160 kts | 318° |
| 2026-04-30 05:54 | -37.81725 | 144.86649 | 2899 ft | 157 kts | 349° |
| 2026-04-30 05:55 | -37.80646 | 144.86347 | 2731 ft | 161 kts | 348° |
| 2026-04-30 05:55 | -37.79551 | 144.86097 | 2535 ft | 158 kts | 352° |
| 2026-04-30 05:55 | -37.78500 | 144.85901 | 2356 ft | 145 kts | 352° |
| 2026-04-30 05:55 | -37.77535 | 144.85726 | 2147 ft | 137 kts | 353° |
| 2026-04-30 05:56 | -37.76597 | 144.85556 | 1972 ft | 135 kts | 354° |
| 2026-04-30 05:56 | -37.75655 | 144.85385 | 1794 ft | 138 kts | 355° |
| 2026-04-30 05:56 | -37.74693 | 144.85211 | 1599 ft | 138 kts | 354° |
| 2026-04-30 05:56 | -37.73774 | 144.85044 | 1415 ft | 135 kts | 353° |
| 2026-04-30 05:57 | -37.72843 | 144.84874 | 1254 ft | 134 kts | 352° |
| 2026-04-30 05:57 | -37.71904 | 144.84704 | 1079 ft | 142 kts | 355° |
| 2026-04-30 05:57 | -37.70902 | 144.84523 | 874 ft | 147 kts | 355° |
| 2026-04-30 05:57 | -37.69890 | 144.84338 | 657 ft | 147 kts | 357° |
| 2026-04-30 05:58 | -37.68901 | 144.84155 | 469 ft | 139 kts | 354° |
| 2026-04-30 05:58 | -37.67952 | 144.83976 | 354 ft | 137 kts | 354° |
| 2026-04-30 05:58 | -37.67047 | 144.83814 | 383 ft | 107 kts | 353° |
| 2026-04-30 05:58 | -37.66529 | 144.83717 | 403 ft | 40 kts | 351° |
| 2026-04-30 05:59 | -37.66319 | 144.83680 | 410 ft | 26 kts | 353° |
| 2026-04-30 05:59 | -37.66166 | 144.83730 | 413 ft | 24 kts | 75° |
| 2026-04-30 05:59 | -37.66190 | 144.83860 | 411 ft | 13 kts | 146° |
| 2026-04-30 05:59 | -37.66266 | 144.83883 | 411 ft | 7 kts | 170° |
| 2026-04-30 06:00 | -37.66315 | 144.83894 | 408 ft | 8 kts | 170° |
| 2026-04-30 06:00 | -37.66374 | 144.83906 | 409 ft | 9 kts | 172° |
| 2026-04-30 06:00 | -37.66456 | 144.83921 | 405 ft | 16 kts | 172° |
| 2026-04-30 06:00 | -37.66551 | 144.83939 | 401 ft | 13 kts | 171° |
| 2026-04-30 06:01 | -37.66643 | 144.83957 | 396 ft | 14 kts | 171° |
| 2026-04-30 06:01 | -37.66721 | 144.84005 | 388 ft | 14 kts | 121° |
| 2026-04-30 06:01 | -37.66711 | 144.84120 | 394 ft | 13 kts | 78° |
| 2026-04-30 06:01 | -37.66698 | 144.84232 | 395 ft | 13 kts | 82° |
| 2026-04-30 06:02 | -37.66685 | 144.84341 | 395 ft | 12 kts | 81° |
| 2026-04-30 06:02 | -37.66672 | 144.84447 | 397 ft | 12 kts | 81° |
| 2026-04-30 06:02 | -37.66660 | 144.84551 | 396 ft | 12 kts | 82° |
| 2026-04-30 06:02 | -37.66648 | 144.84653 | 400 ft | 11 kts | 82° |
| 2026-04-30 06:03 | -37.66634 | 144.84750 | 401 ft | 11 kts | 69° |
| 2026-04-30 06:03 | -37.66575 | 144.84807 | 404 ft | 11 kts | 28° |
| 2026-04-30 06:03 | -37.66543 | 144.84888 | 405 ft | 11 kts | 82° |
| 2026-04-30 06:03 | -37.66533 | 144.84979 | 405 ft | 10 kts | 82° |
| 2026-04-30 06:04 | -37.66557 | 144.85056 | 404 ft | 11 kts | 158° |
| 2026-04-30 06:04 | -37.66624 | 144.85067 | 401 ft | 7 kts | 171° |
| 2026-04-30 06:04 | -37.66681 | 144.85078 | 399 ft | 9 kts | 173° |
| 2026-04-30 06:05 | -37.66780 | 144.85091 | 397 ft | 4 kts | 156° |
| 2026-04-30 06:05 | -37.66783 | 144.85126 | 396 ft | 5 kts | 75° |
| 2026-04-30 06:05 | -37.66778 | 144.85157 | 396 ft | 0 kts | 81° |